sensor_id;sensor_type;location;lat;lon;timestamp;P1;durP1;ratioP1;P2;durP2;ratioP2
54201;SDS011;40108;53.152;5.844;2023-11-21T00:00:54;30.58;;;6.63;;
54201;SDS011;40108;53.152;5.844;2023-11-21T00:03:20;25.83;;;6.72;;
54201;SDS011;40108;53.152;5.844;2023-11-21T00:05:48;20.55;;;5.82;;
54201;SDS011;40108;53.152;5.844;2023-11-21T00:08:14;21.08;;;6.65;;
54201;SDS011;40108;53.152;5.844;2023-11-21T00:10:40;17.85;;;5.80;;
54201;SDS011;40108;53.152;5.844;2023-11-21T00:13:05;17.90;;;6.55;;
54201;SDS011;40108;53.152;5.844;2023-11-21T00:15:31;18.70;;;6.15;;
54201;SDS011;40108;53.152;5.844;2023-11-21T00:17:57;15.57;;;5.90;;
54201;SDS011;40108;53.152;5.844;2023-11-21T00:20:22;14.93;;;5.75;;
54201;SDS011;40108;53.152;5.844;2023-11-21T00:22:48;23.20;;;5.57;;
54201;SDS011;40108;53.152;5.844;2023-11-21T00:25:14;14.40;;;5.80;;
54201;SDS011;40108;53.152;5.844;2023-11-21T00:27:42;12.38;;;5.55;;
54201;SDS011;40108;53.152;5.844;2023-11-21T00:30:08;11.35;;;5.22;;
54201;SDS011;40108;53.152;5.844;2023-11-21T00:32:37;13.55;;;4.97;;
54201;SDS011;40108;53.152;5.844;2023-11-21T00:35:04;11.43;;;5.18;;
54201;SDS011;40108;53.152;5.844;2023-11-21T00:37:31;11.88;;;5.80;;
54201;SDS011;40108;53.152;5.844;2023-11-21T00:39:57;13.45;;;5.90;;
54201;SDS011;40108;53.152;5.844;2023-11-21T00:42:23;14.43;;;6.35;;
54201;SDS011;40108;53.152;5.844;2023-11-21T00:44:49;14.20;;;5.65;;
54201;SDS011;40108;53.152;5.844;2023-11-21T00:47:14;12.88;;;5.78;;
54201;SDS011;40108;53.152;5.844;2023-11-21T00:49:40;16.80;;;5.50;;
54201;SDS011;40108;53.152;5.844;2023-11-21T00:52:07;12.20;;;4.80;;
54201;SDS011;40108;53.152;5.844;2023-11-21T00:54:32;12.50;;;5.68;;
54201;SDS011;40108;53.152;5.844;2023-11-21T00:56:58;10.15;;;5.25;;
54201;SDS011;40108;53.152;5.844;2023-11-21T00:59:24;9.48;;;4.80;;
54201;SDS011;40108;53.152;5.844;2023-11-21T01:01:50;11.32;;;5.18;;
54201;SDS011;40108;53.152;5.844;2023-11-21T01:04:16;12.18;;;4.55;;
54201;SDS011;40108;53.152;5.844;2023-11-21T01:06:41;8.60;;;4.43;;
54201;SDS011;40108;53.152;5.844;2023-11-21T01:09:07;15.45;;;4.78;;
54201;SDS011;40108;53.152;5.844;2023-11-21T01:11:36;9.40;;;4.55;;
54201;SDS011;40108;53.152;5.844;2023-11-21T01:14:02;12.85;;;4.95;;
54201;SDS011;40108;53.152;5.844;2023-11-21T01:16:29;11.23;;;4.70;;
54201;SDS011;40108;53.152;5.844;2023-11-21T01:18:57;10.57;;;4.40;;
54201;SDS011;40108;53.152;5.844;2023-11-21T01:21:24;14.77;;;5.40;;
54201;SDS011;40108;53.152;5.844;2023-11-21T01:23:50;16.15;;;4.65;;
54201;SDS011;40108;53.152;5.844;2023-11-21T01:26:16;13.10;;;5.00;;
54201;SDS011;40108;53.152;5.844;2023-11-21T01:28:41;10.07;;;4.28;;
54201;SDS011;40108;53.152;5.844;2023-11-21T01:31:07;11.68;;;4.55;;
54201;SDS011;40108;53.152;5.844;2023-11-21T01:33:33;14.85;;;5.47;;
54201;SDS011;40108;53.152;5.844;2023-11-21T01:35:58;12.85;;;5.00;;
54201;SDS011;40108;53.152;5.844;2023-11-21T01:38:25;16.10;;;5.85;;
54201;SDS011;40108;53.152;5.844;2023-11-21T01:40:51;16.00;;;5.80;;
54201;SDS011;40108;53.152;5.844;2023-11-21T01:43:16;18.02;;;6.50;;
54201;SDS011;40108;53.152;5.844;2023-11-21T01:45:42;20.83;;;6.47;;
54201;SDS011;40108;53.152;5.844;2023-11-21T01:48:10;16.80;;;6.50;;
54201;SDS011;40108;53.152;5.844;2023-11-21T01:50:36;23.42;;;6.80;;
54201;SDS011;40108;53.152;5.844;2023-11-21T01:53:01;18.33;;;6.38;;
54201;SDS011;40108;53.152;5.844;2023-11-21T01:55:28;19.02;;;6.82;;
54201;SDS011;40108;53.152;5.844;2023-11-21T01:57:56;24.23;;;7.32;;
54201;SDS011;40108;53.152;5.844;2023-11-21T02:00:22;17.88;;;7.70;;
54201;SDS011;40108;53.152;5.844;2023-11-21T02:02:48;25.17;;;7.53;;
54201;SDS011;40108;53.152;5.844;2023-11-21T02:05:14;27.17;;;7.15;;
54201;SDS011;40108;53.152;5.844;2023-11-21T02:07:43;24.45;;;6.72;;
54201;SDS011;40108;53.152;5.844;2023-11-21T02:10:09;19.58;;;6.38;;
54201;SDS011;40108;53.152;5.844;2023-11-21T02:12:35;18.17;;;5.95;;
54201;SDS011;40108;53.152;5.844;2023-11-21T02:15:03;24.13;;;6.43;;
54201;SDS011;40108;53.152;5.844;2023-11-21T02:17:34;20.73;;;6.38;;
54201;SDS011;40108;53.152;5.844;2023-11-21T02:20:01;26.25;;;6.32;;
54201;SDS011;40108;53.152;5.844;2023-11-21T02:22:28;16.05;;;6.43;;
54201;SDS011;40108;53.152;5.844;2023-11-21T02:24:56;18.10;;;5.57;;
54201;SDS011;40108;53.152;5.844;2023-11-21T02:27:23;18.33;;;6.18;;
54201;SDS011;40108;53.152;5.844;2023-11-21T02:29:49;22.58;;;6.90;;
54201;SDS011;40108;53.152;5.844;2023-11-21T02:32:15;20.40;;;5.78;;
54201;SDS011;40108;53.152;5.844;2023-11-21T02:34:44;21.92;;;6.53;;
54201;SDS011;40108;53.152;5.844;2023-11-21T02:37:10;20.42;;;6.50;;
54201;SDS011;40108;53.152;5.844;2023-11-21T02:39:36;18.85;;;6.00;;
54201;SDS011;40108;53.152;5.844;2023-11-21T02:42:01;31.02;;;6.43;;
54201;SDS011;40108;53.152;5.844;2023-11-21T02:44:27;34.13;;;6.22;;
54201;SDS011;40108;53.152;5.844;2023-11-21T02:46:53;28.83;;;5.85;;
54201;SDS011;40108;53.152;5.844;2023-11-21T02:49:18;31.27;;;5.85;;
54201;SDS011;40108;53.152;5.844;2023-11-21T02:51:44;24.98;;;6.40;;
54201;SDS011;40108;53.152;5.844;2023-11-21T02:54:11;30.88;;;6.88;;
54201;SDS011;40108;53.152;5.844;2023-11-21T02:56:36;32.03;;;7.35;;
54201;SDS011;40108;53.152;5.844;2023-11-21T02:59:02;36.58;;;7.68;;
54201;SDS011;40108;53.152;5.844;2023-11-21T03:01:28;22.02;;;6.70;;
54201;SDS011;40108;53.152;5.844;2023-11-21T03:03:54;24.73;;;6.55;;
54201;SDS011;40108;53.152;5.844;2023-11-21T03:06:21;26.80;;;6.25;;
54201;SDS011;40108;53.152;5.844;2023-11-21T03:08:47;22.55;;;5.55;;
54201;SDS011;40108;53.152;5.844;2023-11-21T03:11:13;28.80;;;6.25;;
54201;SDS011;40108;53.152;5.844;2023-11-21T03:13:42;21.95;;;5.25;;
54201;SDS011;40108;53.152;5.844;2023-11-21T03:16:11;24.20;;;4.97;;
54201;SDS011;40108;53.152;5.844;2023-11-21T03:18:37;15.52;;;4.80;;
54201;SDS011;40108;53.152;5.844;2023-11-21T03:21:06;14.85;;;4.07;;
54201;SDS011;40108;53.152;5.844;2023-11-21T03:23:35;12.07;;;3.97;;
54201;SDS011;40108;53.152;5.844;2023-11-21T03:26:01;15.20;;;4.35;;
54201;SDS011;40108;53.152;5.844;2023-11-21T03:28:28;13.43;;;4.03;;
54201;SDS011;40108;53.152;5.844;2023-11-21T03:30:55;10.85;;;3.30;;
54201;SDS011;40108;53.152;5.844;2023-11-21T03:33:21;12.93;;;3.80;;
54201;SDS011;40108;53.152;5.844;2023-11-21T03:35:47;12.40;;;3.92;;
54201;SDS011;40108;53.152;5.844;2023-11-21T03:38:14;11.80;;;3.83;;
54201;SDS011;40108;53.152;5.844;2023-11-21T03:40:39;11.68;;;3.92;;
54201;SDS011;40108;53.152;5.844;2023-11-21T03:43:05;11.70;;;4.32;;
54201;SDS011;40108;53.152;5.844;2023-11-21T03:45:31;12.88;;;4.38;;
54201;SDS011;40108;53.152;5.844;2023-11-21T03:47:57;12.00;;;4.47;;
54201;SDS011;40108;53.152;5.844;2023-11-21T03:50:23;12.43;;;4.80;;
54201;SDS011;40108;53.152;5.844;2023-11-21T03:52:48;16.77;;;4.60;;
54201;SDS011;40108;53.152;5.844;2023-11-21T03:55:14;12.40;;;4.72;;
54201;SDS011;40108;53.152;5.844;2023-11-21T03:57:40;14.57;;;5.40;;
54201;SDS011;40108;53.152;5.844;2023-11-21T04:00:06;14.30;;;5.75;;
54201;SDS011;40108;53.152;5.844;2023-11-21T04:02:35;15.82;;;6.07;;
54201;SDS011;40108;53.152;5.844;2023-11-21T04:05:01;17.92;;;6.35;;
54201;SDS011;40108;53.152;5.844;2023-11-21T04:07:27;15.98;;;7.07;;
54201;SDS011;40108;53.152;5.844;2023-11-21T04:09:52;19.45;;;7.55;;
54201;SDS011;40108;53.152;5.844;2023-11-21T04:12:18;14.68;;;7.45;;
54201;SDS011;40108;53.152;5.844;2023-11-21T04:14:44;18.83;;;8.02;;
54201;SDS011;40108;53.152;5.844;2023-11-21T04:17:10;17.83;;;8.48;;
54201;SDS011;40108;53.152;5.844;2023-11-21T04:19:36;19.63;;;8.48;;
54201;SDS011;40108;53.152;5.844;2023-11-21T04:22:01;21.02;;;9.02;;
54201;SDS011;40108;53.152;5.844;2023-11-21T04:24:27;20.40;;;9.10;;
54201;SDS011;40108;53.152;5.844;2023-11-21T04:26:53;23.75;;;9.38;;
54201;SDS011;40108;53.152;5.844;2023-11-21T04:29:19;25.60;;;9.90;;
54201;SDS011;40108;53.152;5.844;2023-11-21T04:31:44;22.83;;;8.90;;
54201;SDS011;40108;53.152;5.844;2023-11-21T04:34:11;32.15;;;10.50;;
54201;SDS011;40108;53.152;5.844;2023-11-21T04:36:38;28.35;;;10.88;;
54201;SDS011;40108;53.152;5.844;2023-11-21T04:39:04;26.58;;;10.30;;
54201;SDS011;40108;53.152;5.844;2023-11-21T04:41:31;28.15;;;10.25;;
54201;SDS011;40108;53.152;5.844;2023-11-21T04:43:57;25.80;;;10.05;;
54201;SDS011;40108;53.152;5.844;2023-11-21T04:46:23;25.38;;;10.32;;
54201;SDS011;40108;53.152;5.844;2023-11-21T04:48:49;27.70;;;11.00;;
54201;SDS011;40108;53.152;5.844;2023-11-21T04:51:15;25.38;;;10.57;;
54201;SDS011;40108;53.152;5.844;2023-11-21T04:53:40;30.33;;;10.68;;
54201;SDS011;40108;53.152;5.844;2023-11-21T04:56:06;29.70;;;11.40;;
54201;SDS011;40108;53.152;5.844;2023-11-21T04:58:32;27.25;;;11.10;;
54201;SDS011;40108;53.152;5.844;2023-11-21T05:00:58;28.23;;;12.40;;
54201;SDS011;40108;53.152;5.844;2023-11-21T05:03:24;29.02;;;11.68;;
54201;SDS011;40108;53.152;5.844;2023-11-21T05:05:49;36.40;;;12.82;;
54201;SDS011;40108;53.152;5.844;2023-11-21T05:08:15;33.83;;;13.80;;
54201;SDS011;40108;53.152;5.844;2023-11-21T05:10:41;33.10;;;12.50;;
54201;SDS011;40108;53.152;5.844;2023-11-21T05:13:06;32.03;;;12.80;;
54201;SDS011;40108;53.152;5.844;2023-11-21T05:15:35;28.30;;;11.27;;
54201;SDS011;40108;53.152;5.844;2023-11-21T05:18:01;30.80;;;11.88;;
54201;SDS011;40108;53.152;5.844;2023-11-21T05:20:27;26.50;;;10.95;;
54201;SDS011;40108;53.152;5.844;2023-11-21T05:22:53;26.85;;;11.10;;
54201;SDS011;40108;53.152;5.844;2023-11-21T05:25:18;31.73;;;12.18;;
54201;SDS011;40108;53.152;5.844;2023-11-21T05:27:47;28.60;;;11.32;;
54201;SDS011;40108;53.152;5.844;2023-11-21T05:30:13;31.63;;;12.65;;
54201;SDS011;40108;53.152;5.844;2023-11-21T05:32:39;36.55;;;12.10;;
54201;SDS011;40108;53.152;5.844;2023-11-21T05:35:09;36.80;;;13.05;;
54201;SDS011;40108;53.152;5.844;2023-11-21T05:37:39;33.55;;;13.05;;
54201;SDS011;40108;53.152;5.844;2023-11-21T05:40:05;35.88;;;13.02;;
54201;SDS011;40108;53.152;5.844;2023-11-21T05:42:32;39.42;;;14.45;;
54201;SDS011;40108;53.152;5.844;2023-11-21T05:44:58;31.65;;;14.10;;
54201;SDS011;40108;53.152;5.844;2023-11-21T05:47:34;40.97;;;15.57;;
54201;SDS011;40108;53.152;5.844;2023-11-21T05:50:01;43.10;;;15.77;;
54201;SDS011;40108;53.152;5.844;2023-11-21T05:52:27;51.10;;;16.55;;
54201;SDS011;40108;53.152;5.844;2023-11-21T05:54:52;44.92;;;17.15;;
54201;SDS011;40108;53.152;5.844;2023-11-21T05:57:18;44.38;;;15.93;;
54201;SDS011;40108;53.152;5.844;2023-11-21T05:59:44;46.85;;;16.98;;
54201;SDS011;40108;53.152;5.844;2023-11-21T06:02:11;43.38;;;17.35;;
54201;SDS011;40108;53.152;5.844;2023-11-21T06:04:36;40.83;;;16.00;;
54201;SDS011;40108;53.152;5.844;2023-11-21T06:07:02;43.00;;;16.00;;
54201;SDS011;40108;53.152;5.844;2023-11-21T06:09:28;41.90;;;14.90;;
54201;SDS011;40108;53.152;5.844;2023-11-21T06:11:53;35.17;;;13.90;;
54201;SDS011;40108;53.152;5.844;2023-11-21T06:14:19;37.40;;;13.60;;
54201;SDS011;40108;53.152;5.844;2023-11-21T06:16:46;37.63;;;15.55;;
54201;SDS011;40108;53.152;5.844;2023-11-21T06:19:12;62.42;;;24.50;;
54201;SDS011;40108;53.152;5.844;2023-11-21T06:21:38;67.65;;;27.00;;
54201;SDS011;40108;53.152;5.844;2023-11-21T06:24:04;57.97;;;24.67;;
54201;SDS011;40108;53.152;5.844;2023-11-21T06:26:30;185.15;;;71.88;;
54201;SDS011;40108;53.152;5.844;2023-11-21T06:28:56;60.30;;;24.85;;
54201;SDS011;40108;53.152;5.844;2023-11-21T06:31:22;47.92;;;20.50;;
54201;SDS011;40108;53.152;5.844;2023-11-21T06:33:48;53.38;;;20.45;;
54201;SDS011;40108;53.152;5.844;2023-11-21T06:36:14;50.00;;;19.77;;
54201;SDS011;40108;53.152;5.844;2023-11-21T06:38:41;57.35;;;19.75;;
54201;SDS011;40108;53.152;5.844;2023-11-21T06:41:07;52.50;;;18.88;;
54201;SDS011;40108;53.152;5.844;2023-11-21T06:43:33;42.92;;;17.23;;
54201;SDS011;40108;53.152;5.844;2023-11-21T06:45:59;57.17;;;18.77;;
54201;SDS011;40108;53.152;5.844;2023-11-21T06:48:25;53.78;;;18.58;;
54201;SDS011;40108;53.152;5.844;2023-11-21T06:50:50;58.10;;;20.13;;
54201;SDS011;40108;53.152;5.844;2023-11-21T06:53:17;55.95;;;20.17;;
54201;SDS011;40108;53.152;5.844;2023-11-21T06:55:43;61.33;;;20.85;;
54201;SDS011;40108;53.152;5.844;2023-11-21T06:58:08;58.58;;;20.63;;
54201;SDS011;40108;53.152;5.844;2023-11-21T07:00:34;58.40;;;19.95;;
54201;SDS011;40108;53.152;5.844;2023-11-21T07:03:00;60.83;;;20.30;;
54201;SDS011;40108;53.152;5.844;2023-11-21T07:05:25;61.67;;;20.83;;
54201;SDS011;40108;53.152;5.844;2023-11-21T07:07:51;68.85;;;21.00;;
54201;SDS011;40108;53.152;5.844;2023-11-21T07:10:19;56.80;;;20.60;;
54201;SDS011;40108;53.152;5.844;2023-11-21T07:12:44;51.40;;;19.02;;
54201;SDS011;40108;53.152;5.844;2023-11-21T07:15:11;54.72;;;19.40;;
54201;SDS011;40108;53.152;5.844;2023-11-21T07:17:37;47.80;;;18.17;;
54201;SDS011;40108;53.152;5.844;2023-11-21T07:20:03;52.78;;;19.38;;
54201;SDS011;40108;53.152;5.844;2023-11-21T07:22:29;55.40;;;20.13;;
54201;SDS011;40108;53.152;5.844;2023-11-21T07:24:55;89.50;;;40.50;;
54201;SDS011;40108;53.152;5.844;2023-11-21T07:27:21;56.80;;;22.27;;
54201;SDS011;40108;53.152;5.844;2023-11-21T07:29:47;52.63;;;21.23;;
54201;SDS011;40108;53.152;5.844;2023-11-21T07:32:13;56.10;;;22.42;;
54201;SDS011;40108;53.152;5.844;2023-11-21T07:34:40;56.72;;;22.83;;
54201;SDS011;40108;53.152;5.844;2023-11-21T07:37:09;47.13;;;20.00;;
54201;SDS011;40108;53.152;5.844;2023-11-21T07:39:35;46.40;;;20.05;;
54201;SDS011;40108;53.152;5.844;2023-11-21T07:42:01;41.08;;;19.27;;
54201;SDS011;40108;53.152;5.844;2023-11-21T07:44:29;43.05;;;19.35;;
54201;SDS011;40108;53.152;5.844;2023-11-21T07:46:55;35.22;;;17.88;;
54201;SDS011;40108;53.152;5.844;2023-11-21T07:49:23;28.80;;;16.17;;
54201;SDS011;40108;53.152;5.844;2023-11-21T07:51:49;30.45;;;15.50;;
54201;SDS011;40108;53.152;5.844;2023-11-21T07:54:16;27.33;;;15.73;;
54201;SDS011;40108;53.152;5.844;2023-11-21T07:56:41;24.98;;;14.48;;
54201;SDS011;40108;53.152;5.844;2023-11-21T07:59:07;26.20;;;14.80;;
54201;SDS011;40108;53.152;5.844;2023-11-21T08:01:33;24.25;;;14.65;;
54201;SDS011;40108;53.152;5.844;2023-11-21T08:03:59;23.98;;;13.75;;
54201;SDS011;40108;53.152;5.844;2023-11-21T08:06:28;23.35;;;14.20;;
54201;SDS011;40108;53.152;5.844;2023-11-21T08:08:55;25.30;;;14.00;;
54201;SDS011;40108;53.152;5.844;2023-11-21T08:11:21;26.15;;;14.50;;
54201;SDS011;40108;53.152;5.844;2023-11-21T08:13:47;27.13;;;14.32;;
54201;SDS011;40108;53.152;5.844;2023-11-21T08:16:13;29.60;;;14.52;;
54201;SDS011;40108;53.152;5.844;2023-11-21T08:18:39;25.90;;;14.30;;
54201;SDS011;40108;53.152;5.844;2023-11-21T08:21:06;28.35;;;13.75;;
54201;SDS011;40108;53.152;5.844;2023-11-21T08:23:33;25.15;;;14.10;;
54201;SDS011;40108;53.152;5.844;2023-11-21T08:25:59;28.40;;;14.85;;
54201;SDS011;40108;53.152;5.844;2023-11-21T08:28:25;23.50;;;14.07;;
54201;SDS011;40108;53.152;5.844;2023-11-21T08:30:53;24.02;;;13.35;;
54201;SDS011;40108;53.152;5.844;2023-11-21T08:33:21;30.20;;;15.43;;
54201;SDS011;40108;53.152;5.844;2023-11-21T08:35:47;24.85;;;13.45;;
54201;SDS011;40108;53.152;5.844;2023-11-21T08:38:13;28.33;;;14.13;;
54201;SDS011;40108;53.152;5.844;2023-11-21T08:40:39;22.70;;;13.32;;
54201;SDS011;40108;53.152;5.844;2023-11-21T08:43:05;23.08;;;13.40;;
54201;SDS011;40108;53.152;5.844;2023-11-21T08:45:30;24.40;;;13.30;;
54201;SDS011;40108;53.152;5.844;2023-11-21T08:47:59;25.38;;;14.93;;
54201;SDS011;40108;53.152;5.844;2023-11-21T08:50:28;20.25;;;13.80;;
54201;SDS011;40108;53.152;5.844;2023-11-21T08:52:54;24.83;;;15.50;;
54201;SDS011;40108;53.152;5.844;2023-11-21T08:55:20;23.20;;;13.27;;
54201;SDS011;40108;53.152;5.844;2023-11-21T08:57:47;26.55;;;15.55;;
54201;SDS011;40108;53.152;5.844;2023-11-21T09:00:12;23.42;;;15.35;;
54201;SDS011;40108;53.152;5.844;2023-11-21T09:02:41;25.70;;;14.73;;
54201;SDS011;40108;53.152;5.844;2023-11-21T09:05:07;24.95;;;15.35;;
54201;SDS011;40108;53.152;5.844;2023-11-21T09:07:36;22.98;;;14.27;;
54201;SDS011;40108;53.152;5.844;2023-11-21T09:10:03;25.70;;;15.90;;
54201;SDS011;40108;53.152;5.844;2023-11-21T09:12:30;27.05;;;16.70;;
54201;SDS011;40108;53.152;5.844;2023-11-21T09:14:57;25.30;;;16.08;;
54201;SDS011;40108;53.152;5.844;2023-11-21T09:17:23;25.65;;;16.95;;
54201;SDS011;40108;53.152;5.844;2023-11-21T09:19:49;24.48;;;16.20;;
54201;SDS011;40108;53.152;5.844;2023-11-21T09:22:16;26.60;;;17.35;;
54201;SDS011;40108;53.152;5.844;2023-11-21T09:24:42;24.95;;;16.40;;
54201;SDS011;40108;53.152;5.844;2023-11-21T09:27:08;25.40;;;15.65;;
54201;SDS011;40108;53.152;5.844;2023-11-21T09:29:34;28.00;;;18.38;;
54201;SDS011;40108;53.152;5.844;2023-11-21T09:32:03;26.73;;;16.92;;
54201;SDS011;40108;53.152;5.844;2023-11-21T09:34:32;27.30;;;16.88;;
54201;SDS011;40108;53.152;5.844;2023-11-21T09:36:58;25.48;;;16.58;;
54201;SDS011;40108;53.152;5.844;2023-11-21T09:39:24;22.63;;;15.52;;
54201;SDS011;40108;53.152;5.844;2023-11-21T09:41:50;24.88;;;16.88;;
54201;SDS011;40108;53.152;5.844;2023-11-21T09:44:38;23.70;;;17.48;;
54201;SDS011;40108;53.152;5.844;2023-11-21T09:47:10;23.88;;;16.13;;
54201;SDS011;40108;53.152;5.844;2023-11-21T09:49:41;24.10;;;16.13;;
54201;SDS011;40108;53.152;5.844;2023-11-21T09:52:13;29.03;;;17.07;;
54201;SDS011;40108;53.152;5.844;2023-11-21T09:54:49;21.80;;;14.45;;
54201;SDS011;40108;53.152;5.844;2023-11-21T09:57:15;24.25;;;16.08;;
54201;SDS011;40108;53.152;5.844;2023-11-21T09:59:42;21.02;;;14.75;;
54201;SDS011;40108;53.152;5.844;2023-11-21T10:02:10;21.48;;;14.60;;
54201;SDS011;40108;53.152;5.844;2023-11-21T10:04:38;16.17;;;11.68;;
54201;SDS011;40108;53.152;5.844;2023-11-21T10:07:05;16.30;;;11.57;;
54201;SDS011;40108;53.152;5.844;2023-11-21T10:09:35;15.90;;;11.95;;
54201;SDS011;40108;53.152;5.844;2023-11-21T10:12:03;14.45;;;11.23;;
54201;SDS011;40108;53.152;5.844;2023-11-21T10:14:31;18.45;;;12.27;;
54201;SDS011;40108;53.152;5.844;2023-11-21T10:16:58;16.02;;;11.05;;
54201;SDS011;40108;53.152;5.844;2023-11-21T10:19:24;16.40;;;12.68;;
54201;SDS011;40108;53.152;5.844;2023-11-21T10:21:52;17.33;;;12.40;;
54201;SDS011;40108;53.152;5.844;2023-11-21T10:24:19;18.67;;;13.45;;
54201;SDS011;40108;53.152;5.844;2023-11-21T10:26:45;18.63;;;13.60;;
54201;SDS011;40108;53.152;5.844;2023-11-21T10:29:13;17.42;;;12.65;;
54201;SDS011;40108;53.152;5.844;2023-11-21T10:31:42;18.83;;;13.60;;
54201;SDS011;40108;53.152;5.844;2023-11-21T10:34:15;22.15;;;13.75;;
54201;SDS011;40108;53.152;5.844;2023-11-21T10:36:42;24.92;;;13.10;;
54201;SDS011;40108;53.152;5.844;2023-11-21T10:39:08;19.25;;;12.88;;
54201;SDS011;40108;53.152;5.844;2023-11-21T10:41:36;21.13;;;14.50;;
54201;SDS011;40108;53.152;5.844;2023-11-21T10:44:03;17.63;;;13.75;;
54201;SDS011;40108;53.152;5.844;2023-11-21T10:46:31;18.83;;;13.25;;
54201;SDS011;40108;53.152;5.844;2023-11-21T10:48:58;19.50;;;13.32;;
54201;SDS011;40108;53.152;5.844;2023-11-21T10:51:25;17.33;;;14.02;;
54201;SDS011;40108;53.152;5.844;2023-11-21T10:53:51;16.27;;;13.07;;
54201;SDS011;40108;53.152;5.844;2023-11-21T10:56:18;17.95;;;13.65;;
54201;SDS011;40108;53.152;5.844;2023-11-21T10:58:46;16.92;;;13.88;;
54201;SDS011;40108;53.152;5.844;2023-11-21T11:01:14;19.10;;;14.35;;
54201;SDS011;40108;53.152;5.844;2023-11-21T11:03:43;17.30;;;13.88;;
54201;SDS011;40108;53.152;5.844;2023-11-21T11:06:10;17.08;;;14.10;;
54201;SDS011;40108;53.152;5.844;2023-11-21T11:08:37;17.73;;;12.88;;
54201;SDS011;40108;53.152;5.844;2023-11-21T11:11:07;16.40;;;13.73;;
54201;SDS011;40108;53.152;5.844;2023-11-21T11:13:35;21.42;;;15.82;;
54201;SDS011;40108;53.152;5.844;2023-11-21T11:16:02;20.60;;;15.02;;
54201;SDS011;40108;53.152;5.844;2023-11-21T11:18:32;19.85;;;15.07;;
54201;SDS011;40108;53.152;5.844;2023-11-21T11:21:22;18.73;;;15.25;;
54201;SDS011;40108;53.152;5.844;2023-11-21T11:24:24;17.10;;;14.20;;
54201;SDS011;40108;53.152;5.844;2023-11-21T11:27:06;18.55;;;12.48;;
54201;SDS011;40108;53.152;5.844;2023-11-21T11:29:44;14.30;;;12.80;;
54201;SDS011;40108;53.152;5.844;2023-11-21T11:32:43;13.25;;;11.18;;
54201;SDS011;40108;53.152;5.844;2023-11-21T11:35:33;11.27;;;10.13;;
54201;SDS011;40108;53.152;5.844;2023-11-21T11:38:07;11.32;;;9.57;;
54201;SDS011;40108;53.152;5.844;2023-11-21T11:40:39;11.18;;;9.13;;
54201;SDS011;40108;53.152;5.844;2023-11-21T11:43:07;11.30;;;8.93;;
54201;SDS011;40108;53.152;5.844;2023-11-21T11:45:33;10.85;;;9.02;;
54201;SDS011;40108;53.152;5.844;2023-11-21T11:48:00;9.88;;;8.00;;
54201;SDS011;40108;53.152;5.844;2023-11-21T11:50:28;8.68;;;7.13;;
54201;SDS011;40108;53.152;5.844;2023-11-21T11:52:57;8.50;;;7.40;;
54201;SDS011;40108;53.152;5.844;2023-11-21T11:55:40;9.00;;;7.70;;
54201;SDS011;40108;53.152;5.844;2023-11-21T11:58:06;11.55;;;8.55;;
54201;SDS011;40108;53.152;5.844;2023-11-21T12:00:33;10.27;;;7.32;;
54201;SDS011;40108;53.152;5.844;2023-11-21T12:03:03;12.25;;;8.85;;
54201;SDS011;40108;53.152;5.844;2023-11-21T12:05:32;7.32;;;6.13;;
54201;SDS011;40108;53.152;5.844;2023-11-21T12:08:07;8.05;;;6.65;;
54201;SDS011;40108;53.152;5.844;2023-11-21T12:10:34;6.88;;;5.80;;
54201;SDS011;40108;53.152;5.844;2023-11-21T12:13:05;6.20;;;5.53;;
54201;SDS011;40108;53.152;5.844;2023-11-21T12:17:59;6.35;;;5.65;;
54201;SDS011;40108;53.152;5.844;2023-11-21T12:20:25;6.63;;;5.47;;
54201;SDS011;40108;53.152;5.844;2023-11-21T12:22:52;7.90;;;5.88;;
54201;SDS011;40108;53.152;5.844;2023-11-21T12:25:20;7.22;;;5.75;;
54201;SDS011;40108;53.152;5.844;2023-11-21T12:27:46;7.22;;;5.28;;
54201;SDS011;40108;53.152;5.844;2023-11-21T12:30:15;8.40;;;6.03;;
54201;SDS011;40108;53.152;5.844;2023-11-21T12:32:47;7.28;;;5.82;;
54201;SDS011;40108;53.152;5.844;2023-11-21T12:35:15;6.90;;;5.38;;
54201;SDS011;40108;53.152;5.844;2023-11-21T12:37:45;7.18;;;6.05;;
54201;SDS011;40108;53.152;5.844;2023-11-21T12:40:12;9.32;;;5.90;;
54201;SDS011;40108;53.152;5.844;2023-11-21T12:42:43;7.35;;;5.13;;
54201;SDS011;40108;53.152;5.844;2023-11-21T12:50:28;9.73;;;6.82;;
54201;SDS011;40108;53.152;5.844;2023-11-21T12:53:02;7.90;;;6.35;;
54201;SDS011;40108;53.152;5.844;2023-11-21T12:55:33;8.15;;;6.60;;
54201;SDS011;40108;53.152;5.844;2023-11-21T12:58:03;10.07;;;7.90;;
54201;SDS011;40108;53.152;5.844;2023-11-21T13:00:35;34.97;;;22.02;;
54201;SDS011;40108;53.152;5.844;2023-11-21T13:03:04;147.90;;;64.90;;
54201;SDS011;40108;53.152;5.844;2023-11-21T13:05:35;79.32;;;34.05;;
54201;SDS011;40108;53.152;5.844;2023-11-21T13:08:08;45.13;;;20.85;;
54201;SDS011;40108;53.152;5.844;2023-11-21T13:10:38;21.80;;;11.50;;
54201;SDS011;40108;53.152;5.844;2023-11-21T13:13:06;38.03;;;16.65;;
54201;SDS011;40108;53.152;5.844;2023-11-21T13:15:34;45.22;;;18.17;;
54201;SDS011;40108;53.152;5.844;2023-11-21T13:18:05;14.32;;;8.40;;
54201;SDS011;40108;53.152;5.844;2023-11-21T13:20:32;68.03;;;24.20;;
54201;SDS011;40108;53.152;5.844;2023-11-21T13:22:58;226.48;;;76.22;;
54201;SDS011;40108;53.152;5.844;2023-11-21T13:25:24;278.40;;;98.22;;
54201;SDS011;40108;53.152;5.844;2023-11-21T13:27:55;212.98;;;77.55;;
54201;SDS011;40108;53.152;5.844;2023-11-21T13:30:22;41.08;;;28.45;;
54201;SDS011;40108;53.152;5.844;2023-11-21T13:32:52;8.68;;;6.97;;
54201;SDS011;40108;53.152;5.844;2023-11-21T13:35:18;7.40;;;5.65;;
54201;SDS011;40108;53.152;5.844;2023-11-21T13:37:55;7.80;;;5.50;;
54201;SDS011;40108;53.152;5.844;2023-11-21T13:40:24;6.50;;;5.57;;
54201;SDS011;40108;53.152;5.844;2023-11-21T13:42:53;8.02;;;6.43;;
54201;SDS011;40108;53.152;5.844;2023-11-21T13:45:21;8.75;;;6.53;;
54201;SDS011;40108;53.152;5.844;2023-11-21T13:47:48;10.23;;;6.70;;
54201;SDS011;40108;53.152;5.844;2023-11-21T13:50:16;10.18;;;7.38;;
54201;SDS011;40108;53.152;5.844;2023-11-21T13:52:48;10.93;;;7.28;;
54201;SDS011;40108;53.152;5.844;2023-11-21T13:55:14;9.07;;;7.20;;
54201;SDS011;40108;53.152;5.844;2023-11-21T13:57:42;9.77;;;6.93;;
54201;SDS011;40108;53.152;5.844;2023-11-21T14:00:11;9.25;;;7.43;;
54201;SDS011;40108;53.152;5.844;2023-11-21T14:02:57;9.55;;;7.05;;
54201;SDS011;40108;53.152;5.844;2023-11-21T14:05:29;11.38;;;7.10;;
54201;SDS011;40108;53.152;5.844;2023-11-21T14:07:56;8.23;;;6.78;;
54201;SDS011;40108;53.152;5.844;2023-11-21T14:10:28;9.77;;;7.67;;
54201;SDS011;40108;53.152;5.844;2023-11-21T14:13:02;10.27;;;7.28;;
54201;SDS011;40108;53.152;5.844;2023-11-21T14:15:30;11.13;;;7.90;;
54201;SDS011;40108;53.152;5.844;2023-11-21T14:17:58;11.38;;;7.80;;
54201;SDS011;40108;53.152;5.844;2023-11-21T14:20:25;11.77;;;8.10;;
54201;SDS011;40108;53.152;5.844;2023-11-21T14:22:50;11.70;;;7.03;;
54201;SDS011;40108;53.152;5.844;2023-11-21T14:25:17;10.63;;;7.32;;
54201;SDS011;40108;53.152;5.844;2023-11-21T14:27:43;10.90;;;7.70;;
54201;SDS011;40108;53.152;5.844;2023-11-21T14:30:08;9.50;;;7.10;;
54201;SDS011;40108;53.152;5.844;2023-11-21T14:32:37;11.63;;;7.68;;
54201;SDS011;40108;53.152;5.844;2023-11-21T14:35:03;73.25;;;43.10;;
54201;SDS011;40108;53.152;5.844;2023-11-21T14:37:30;17.45;;;11.18;;